sensor_id;sensor_type;location;lat;lon;timestamp;P1;P4;P2;P0;N10;N4;N25;N1;N05;TS
84586;SPS30;74809;48.198;16.302;2024-02-26T00:01:21;6.2;;6.3;5.9;;;;;;
84586;SPS30;74809;48.198;16.302;2024-02-26T00:06:21;6.6;;6.7;6.1;;;;;;
84586;SPS30;74809;48.198;16.302;2024-02-26T00:11:21;5.8;;5.9;5.4;;;;;;
84586;SPS30;74809;48.198;16.302;2024-02-26T00:16:21;6.1;;6.2;5.8;;;;;;
84586;SPS30;74809;48.198;16.302;2024-02-26T00:21:21;6.9;;7.1;6.5;;;;;;
84586;SPS30;74809;48.198;16.302;2024-02-26T00:26:21;7.0;;7.1;6.5;;;;;;
84586;SPS30;74809;48.198;16.302;2024-02-26T00:31:21;6.2;;6.3;5.8;;;;;;
84586;SPS30;74809;48.198;16.302;2024-02-26T00:36:21;6.5;;6.6;6.1;;;;;;
84586;SPS30;74809;48.198;16.302;2024-02-26T00:41:21;6.4;;6.5;6.0;;;;;;
84586;SPS30;74809;48.198;16.302;2024-02-26T00:46:21;6.4;;6.5;5.9;;;;;;
84586;SPS30;74809;48.198;16.302;2024-02-26T00:51:21;6.2;;6.3;5.8;;;;;;
84586;SPS30;74809;48.198;16.302;2024-02-26T00:56:21;6.0;;6.1;5.6;;;;;;
84586;SPS30;74809;48.198;16.302;2024-02-26T01:01:21;7.0;;7.2;6.6;;;;;;
84586;SPS30;74809;48.198;16.302;2024-02-26T01:06:21;7.5;;7.6;7.1;;;;;;
84586;SPS30;74809;48.198;16.302;2024-02-26T01:11:21;7.9;;8.0;7.4;;;;;;
84586;SPS30;74809;48.198;16.302;2024-02-26T01:16:21;7.6;;7.7;7.2;;;;;;
84586;SPS30;74809;48.198;16.302;2024-02-26T01:21:21;7.6;;7.6;7.1;;;;;;
84586;SPS30;74809;48.198;16.302;2024-02-26T01:26:21;7.1;;7.2;6.7;;;;;;
84586;SPS30;74809;48.198;16.302;2024-02-26T01:31:21;7.6;;7.8;7.0;;;;;;
84586;SPS30;74809;48.198;16.302;2024-02-26T01:36:21;7.0;;7.1;6.5;;;;;;
84586;SPS30;74809;48.198;16.302;2024-02-26T01:41:21;8.1;;8.2;7.6;;;;;;
84586;SPS30;74809;48.198;16.302;2024-02-26T01:46:21;8.0;;8.1;7.5;;;;;;
84586;SPS30;74809;48.198;16.302;2024-02-26T01:51:21;8.4;;8.5;7.9;;;;;;
84586;SPS30;74809;48.198;16.302;2024-02-26T01:56:21;7.9;;8.2;7.4;;;;;;
84586;SPS30;74809;48.198;16.302;2024-02-26T02:01:21;6.0;;6.0;5.6;;;;;;
84586;SPS30;74809;48.198;16.302;2024-02-26T02:06:21;7.5;;7.6;7.0;;;;;;
84586;SPS30;74809;48.198;16.302;2024-02-26T02:11:21;8.1;;8.2;7.6;;;;;;
84586;SPS30;74809;48.198;16.302;2024-02-26T02:16:21;7.5;;7.6;7.0;;;;;;
84586;SPS30;74809;48.198;16.302;2024-02-26T02:21:21;7.3;;7.5;6.9;;;;;;
84586;SPS30;74809;48.198;16.302;2024-02-26T02:26:21;7.0;;7.1;6.7;;;;;;
84586;SPS30;74809;48.198;16.302;2024-02-26T02:31:21;7.6;;7.6;7.2;;;;;;
84586;SPS30;74809;48.198;16.302;2024-02-26T02:36:21;6.7;;6.8;6.3;;;;;;
84586;SPS30;74809;48.198;16.302;2024-02-26T02:41:21;6.1;;6.2;5.7;;;;;;
84586;SPS30;74809;48.198;16.302;2024-02-26T02:46:21;6.0;;6.1;5.7;;;;;;
84586;SPS30;74809;48.198;16.302;2024-02-26T02:51:21;7.0;;7.1;6.6;;;;;;
84586;SPS30;74809;48.198;16.302;2024-02-26T02:56:21;7.1;;7.3;6.6;;;;;;
84586;SPS30;74809;48.198;16.302;2024-02-26T03:01:21;7.4;;7.5;6.9;;;;;;
84586;SPS30;74809;48.198;16.302;2024-02-26T03:06:21;7.7;;7.9;7.2;;;;;;
84586;SPS30;74809;48.198;16.302;2024-02-26T03:11:21;6.9;;6.9;6.5;;;;;;
84586;SPS30;74809;48.198;16.302;2024-02-26T03:16:21;6.9;;7.1;6.4;;;;;;
84586;SPS30;74809;48.198;16.302;2024-02-26T03:21:21;6.7;;6.9;6.3;;;;;;
84586;SPS30;74809;48.198;16.302;2024-02-26T03:26:21;6.5;;6.6;6.1;;;;;;
84586;SPS30;74809;48.198;16.302;2024-02-26T03:31:21;6.5;;6.7;6.1;;;;;;
84586;SPS30;74809;48.198;16.302;2024-02-26T03:36:21;6.3;;6.4;5.9;;;;;;
84586;SPS30;74809;48.198;16.302;2024-02-26T03:41:21;7.4;;7.4;7.0;;;;;;
84586;SPS30;74809;48.198;16.302;2024-02-26T03:46:21;6.6;;6.7;6.2;;;;;;
84586;SPS30;74809;48.198;16.302;2024-02-26T03:51:21;6.8;;7.0;6.4;;;;;;
84586;SPS30;74809;48.198;16.302;2024-02-26T03:56:21;7.0;;7.1;6.6;;;;;;
84586;SPS30;74809;48.198;16.302;2024-02-26T04:01:21;6.7;;6.8;6.3;;;;;;
84586;SPS30;74809;48.198;16.302;2024-02-26T04:06:21;6.4;;6.4;6.1;;;;;;
84586;SPS30;74809;48.198;16.302;2024-02-26T04:11:21;6.7;;6.8;6.3;;;;;;
84586;SPS30;74809;48.198;16.302;2024-02-26T04:16:21;6.8;;6.9;6.5;;;;;;
84586;SPS30;74809;48.198;16.302;2024-02-26T04:21:21;5.6;;5.7;5.2;;;;;;
84586;SPS30;74809;48.198;16.302;2024-02-26T04:26:21;6.6;;6.8;6.2;;;;;;
84586;SPS30;74809;48.198;16.302;2024-02-26T04:31:21;7.2;;7.4;6.8;;;;;;
84586;SPS30;74809;48.198;16.302;2024-02-26T04:36:23;6.8;;7.0;6.4;;;;;;
84586;SPS30;74809;48.198;16.302;2024-02-26T04:41:21;6.8;;7.0;6.4;;;;;;
84586;SPS30;74809;48.198;16.302;2024-02-26T04:46:21;7.1;;7.2;6.6;;;;;;
84586;SPS30;74809;48.198;16.302;2024-02-26T04:51:21;8.1;;8.2;7.7;;;;;;
84586;SPS30;74809;48.198;16.302;2024-02-26T04:56:21;7.2;;7.3;6.7;;;;;;
84586;SPS30;74809;48.198;16.302;2024-02-26T05:01:21;7.8;;8.0;7.3;;;;;;
84586;SPS30;74809;48.198;16.302;2024-02-26T05:06:21;7.3;;7.3;6.9;;;;;;
84586;SPS30;74809;48.198;16.302;2024-02-26T05:11:21;7.3;;7.5;6.8;;;;;;
84586;SPS30;74809;48.198;16.302;2024-02-26T05:16:21;8.3;;8.3;7.9;;;;;;
84586;SPS30;74809;48.198;16.302;2024-02-26T05:21:21;8.6;;8.8;8.1;;;;;;
84586;SPS30;74809;48.198;16.302;2024-02-26T05:26:21;9.0;;9.2;8.5;;;;;;
84586;SPS30;74809;48.198;16.302;2024-02-26T05:31:21;7.7;;7.9;7.2;;;;;;
84586;SPS30;74809;48.198;16.302;2024-02-26T05:36:21;9.7;;9.9;9.0;;;;;;
84586;SPS30;74809;48.198;16.302;2024-02-26T05:41:21;8.8;;9.0;8.3;;;;;;
84586;SPS30;74809;48.198;16.302;2024-02-26T05:46:21;9.1;;9.2;8.6;;;;;;
84586;SPS30;74809;48.198;16.302;2024-02-26T05:51:21;9.2;;9.5;8.6;;;;;;
84586;SPS30;74809;48.198;16.302;2024-02-26T05:56:21;9.0;;9.4;8.3;;;;;;
84586;SPS30;74809;48.198;16.302;2024-02-26T06:01:21;7.8;;7.9;7.3;;;;;;
84586;SPS30;74809;48.198;16.302;2024-02-26T06:06:22;9.4;;9.7;8.8;;;;;;
84586;SPS30;74809;48.198;16.302;2024-02-26T06:11:21;9.0;;9.0;8.5;;;;;;
84586;SPS30;74809;48.198;16.302;2024-02-26T06:16:21;9.0;;9.1;8.6;;;;;;
84586;SPS30;74809;48.198;16.302;2024-02-26T06:21:21;9.7;;10.0;9.1;;;;;;
84586;SPS30;74809;48.198;16.302;2024-02-26T06:26:21;9.1;;9.3;8.6;;;;;;
84586;SPS30;74809;48.198;16.302;2024-02-26T06:31:22;8.4;;8.8;7.8;;;;;;
84586;SPS30;74809;48.198;16.302;2024-02-26T06:36:21;7.6;;7.7;7.2;;;;;;
84586;SPS30;74809;48.198;16.302;2024-02-26T06:41:21;8.2;;8.2;7.8;;;;;;
84586;SPS30;74809;48.198;16.302;2024-02-26T06:46:21;8.2;;8.4;7.6;;;;;;
84586;SPS30;74809;48.198;16.302;2024-02-26T06:51:21;7.2;;7.3;6.8;;;;;;
84586;SPS30;74809;48.198;16.302;2024-02-26T06:56:21;6.7;;6.7;6.4;;;;;;
84586;SPS30;74809;48.198;16.302;2024-02-26T07:01:21;6.9;;6.9;6.6;;;;;;
84586;SPS30;74809;48.198;16.302;2024-02-26T07:06:21;6.8;;7.0;6.3;;;;;;
84586;SPS30;74809;48.198;16.302;2024-02-26T07:11:21;8.0;;8.2;7.5;;;;;;
84586;SPS30;74809;48.198;16.302;2024-02-26T07:16:21;6.9;;6.9;6.6;;;;;;
84586;SPS30;74809;48.198;16.302;2024-02-26T07:21:21;7.2;;7.2;6.9;;;;;;
84586;SPS30;74809;48.198;16.302;2024-02-26T07:26:21;6.7;;6.7;6.4;;;;;;
84586;SPS30;74809;48.198;16.302;2024-02-26T07:31:21;6.9;;6.9;6.6;;;;;;
84586;SPS30;74809;48.198;16.302;2024-02-26T07:36:21;6.4;;6.4;6.1;;;;;;
84586;SPS30;74809;48.198;16.302;2024-02-26T07:41:21;7.7;;7.7;7.3;;;;;;
84586;SPS30;74809;48.198;16.302;2024-02-26T07:46:21;6.2;;6.2;5.9;;;;;;
84586;SPS30;74809;48.198;16.302;2024-02-26T07:51:22;6.7;;6.7;6.4;;;;;;
84586;SPS30;74809;48.198;16.302;2024-02-26T07:56:21;6.5;;6.5;6.2;;;;;;
84586;SPS30;74809;48.198;16.302;2024-02-26T08:01:21;6.3;;6.3;6.1;;;;;;
84586;SPS30;74809;48.198;16.302;2024-02-26T08:06:22;6.6;;6.7;6.3;;;;;;
84586;SPS30;74809;48.198;16.302;2024-02-26T08:11:21;7.0;;7.0;6.7;;;;;;
84586;SPS30;74809;48.198;16.302;2024-02-26T08:16:21;7.1;;7.1;6.7;;;;;;
84586;SPS30;74809;48.198;16.302;2024-02-26T08:21:21;7.3;;7.3;6.9;;;;;;
84586;SPS30;74809;48.198;16.302;2024-02-26T08:26:21;8.2;;8.3;7.8;;;;;;
84586;SPS30;74809;48.198;16.302;2024-02-26T08:31:21;7.7;;7.7;7.3;;;;;;
84586;SPS30;74809;48.198;16.302;2024-02-26T08:36:21;7.8;;7.8;7.4;;;;;;
84586;SPS30;74809;48.198;16.302;2024-02-26T08:41:21;7.7;;7.9;7.2;;;;;;
84586;SPS30;74809;48.198;16.302;2024-02-26T08:46:21;8.7;;8.7;8.3;;;;;;
84586;SPS30;74809;48.198;16.302;2024-02-26T08:51:21;9.4;;9.4;9.0;;;;;;
84586;SPS30;74809;48.198;16.302;2024-02-26T08:56:24;9.6;;9.7;9.0;;;;;;
84586;SPS30;74809;48.198;16.302;2024-02-26T09:01:21;9.7;;9.9;9.0;;;;;;
84586;SPS30;74809;48.198;16.302;2024-02-26T09:06:21;8.4;;8.4;8.0;;;;;;
84586;SPS30;74809;48.198;16.302;2024-02-26T09:11:21;8.7;;8.7;8.3;;;;;;
84586;SPS30;74809;48.198;16.302;2024-02-26T09:16:21;8.0;;8.0;7.7;;;;;;
84586;SPS30;74809;48.198;16.302;2024-02-26T09:21:21;8.3;;8.3;7.9;;;;;;
84586;SPS30;74809;48.198;16.302;2024-02-26T09:26:21;6.6;;6.7;6.2;;;;;;
84586;SPS30;74809;48.198;16.302;2024-02-26T09:31:21;5.7;;5.9;5.4;;;;;;
84586;SPS30;74809;48.198;16.302;2024-02-26T09:36:25;5.7;;5.7;5.5;;;;;;
84586;SPS30;74809;48.198;16.302;2024-02-26T09:41:21;5.1;;5.1;4.8;;;;;;
84586;SPS30;74809;48.198;16.302;2024-02-26T09:46:21;4.4;;4.4;4.2;;;;;;
84586;SPS30;74809;48.198;16.302;2024-02-26T09:51:22;3.8;;3.8;3.6;;;;;;
84586;SPS30;74809;48.198;16.302;2024-02-26T09:56:21;4.3;;4.4;4.1;;;;;;
84586;SPS30;74809;48.198;16.302;2024-02-26T10:01:21;3.6;;3.7;3.4;;;;;;
84586;SPS30;74809;48.198;16.302;2024-02-26T10:06:23;3.8;;3.9;3.6;;;;;;
84586;SPS30;74809;48.198;16.302;2024-02-26T10:11:21;3.2;;3.2;3.1;;;;;;
84586;SPS30;74809;48.198;16.302;2024-02-26T10:16:21;3.1;;3.1;2.9;;;;;;
84586;SPS30;74809;48.198;16.302;2024-02-26T10:21:22;4.5;;4.5;4.3;;;;;;
84586;SPS30;74809;48.198;16.302;2024-02-26T10:26:21;3.4;;3.5;3.2;;;;;;
84586;SPS30;74809;48.198;16.302;2024-02-26T10:31:21;3.3;;3.4;3.2;;;;;;
84586;SPS30;74809;48.198;16.302;2024-02-26T10:36:21;3.3;;3.4;3.1;;;;;;
84586;SPS30;74809;48.198;16.302;2024-02-26T10:41:22;4.0;;4.1;3.8;;;;;;
84586;SPS30;74809;48.198;16.302;2024-02-26T10:46:21;3.5;;3.5;3.3;;;;;;
84586;SPS30;74809;48.198;16.302;2024-02-26T10:51:23;3.7;;3.7;3.5;;;;;;
84586;SPS30;74809;48.198;16.302;2024-02-26T10:56:21;3.6;;3.6;3.4;;;;;;
84586;SPS30;74809;48.198;16.302;2024-02-26T11:01:21;3.4;;3.4;3.2;;;;;;
84586;SPS30;74809;48.198;16.302;2024-02-26T11:06:22;3.1;;3.1;3.0;;;;;;
84586;SPS30;74809;48.198;16.302;2024-02-26T11:11:21;3.4;;3.4;3.2;;;;;;
84586;SPS30;74809;48.198;16.302;2024-02-26T11:16:21;3.4;;3.4;3.2;;;;;;
84586;SPS30;74809;48.198;16.302;2024-02-26T11:21:21;3.5;;3.6;3.3;;;;;;
84586;SPS30;74809;48.198;16.302;2024-02-26T11:26:21;2.9;;2.9;2.7;;;;;;
84586;SPS30;74809;48.198;16.302;2024-02-26T11:31:22;2.5;;2.5;2.4;;;;;;
84586;SPS30;74809;48.198;16.302;2024-02-26T11:36:21;2.5;;2.5;2.3;;;;;;
84586;SPS30;74809;48.198;16.302;2024-02-26T11:41:21;2.6;;2.6;2.4;;;;;;
84586;SPS30;74809;48.198;16.302;2024-02-26T11:51:26;2.0;;2.0;1.9;;;;;;
84586;SPS30;74809;48.198;16.302;2024-02-26T11:56:22;2.3;;2.4;2.2;;;;;;
84586;SPS30;74809;48.198;16.302;2024-02-26T12:06:21;2.1;;2.1;2.0;;;;;;
84586;SPS30;74809;48.198;16.302;2024-02-26T12:11:21;1.6;;1.6;1.5;;;;;;
84586;SPS30;74809;48.198;16.302;2024-02-26T12:16:35;4.3;;4.3;4.0;;;;;;
84586;SPS30;74809;48.198;16.302;2024-02-26T12:21:26;2.8;;2.9;2.7;;;;;;
84586;SPS30;74809;48.198;16.302;2024-02-26T12:26:26;2.2;;2.2;2.0;;;;;;
84586;SPS30;74809;48.198;16.302;2024-02-26T12:31:27;2.5;;2.5;2.4;;;;;;
84586;SPS30;74809;48.198;16.302;2024-02-26T12:36:26;2.5;;2.5;2.4;;;;;;
84586;SPS30;74809;48.198;16.302;2024-02-26T12:41:26;2.7;;2.8;2.6;;;;;;
84586;SPS30;74809;48.198;16.302;2024-02-26T12:46:26;3.1;;3.1;2.9;;;;;;
84586;SPS30;74809;48.198;16.302;2024-02-26T12:51:26;3.2;;3.3;3.1;;;;;;
84586;SPS30;74809;48.198;16.302;2024-02-26T12:56:22;2.9;;2.9;2.7;;;;;;
84586;SPS30;74809;48.198;16.302;2024-02-26T13:01:23;3.4;;3.4;3.2;;;;;;
84586;SPS30;74809;48.198;16.302;2024-02-26T13:06:21;2.9;;2.9;2.8;;;;;;
84586;SPS30;74809;48.198;16.302;2024-02-26T13:11:21;2.9;;2.9;2.8;;;;;;
84586;SPS30;74809;48.198;16.302;2024-02-26T13:16:23;6.3;;6.4;5.9;;;;;;
84586;SPS30;74809;48.198;16.302;2024-02-26T13:21:22;4.3;;4.3;4.1;;;;;;
84586;SPS30;74809;48.198;16.302;2024-02-26T13:26:22;1.9;;2.0;1.8;;;;;;
84586;SPS30;74809;48.198;16.302;2024-02-26T13:31:21;2.4;;2.4;2.3;;;;;;
84586;SPS30;74809;48.198;16.302;2024-02-26T13:36:22;2.3;;2.3;2.2;;;;;;
84586;SPS30;74809;48.198;16.302;2024-02-26T13:41:21;2.1;;2.1;2.0;;;;;;
84586;SPS30;74809;48.198;16.302;2024-02-26T13:46:26;1.8;;1.8;1.7;;;;;;
84586;SPS30;74809;48.198;16.302;2024-02-26T13:51:26;2.0;;2.0;1.9;;;;;;
84586;SPS30;74809;48.198;16.302;2024-02-26T13:56:21;2.3;;2.3;2.2;;;;;;
84586;SPS30;74809;48.198;16.302;2024-02-26T14:01:22;1.8;;1.8;1.7;;;;;;
84586;SPS30;74809;48.198;16.302;2024-02-26T14:06:21;2.1;;2.2;2.0;;;;;;
84586;SPS30;74809;48.198;16.302;2024-02-26T14:11:21;2.0;;2.1;1.9;;;;;;
84586;SPS30;74809;48.198;16.302;2024-02-26T14:16:21;2.6;;2.7;2.5;;;;;;
84586;SPS30;74809;48.198;16.302;2024-02-26T14:21:21;2.0;;2.0;1.9;;;;;;
84586;SPS30;74809;48.198;16.302;2024-02-26T14:26:22;2.2;;2.2;2.1;;;;;;
84586;SPS30;74809;48.198;16.302;2024-02-26T14:31:21;2.2;;2.2;2.1;;;;;;
84586;SPS30;74809;48.198;16.302;2024-02-26T14:36:22;2.6;;2.6;2.5;;;;;;
84586;SPS30;74809;48.198;16.302;2024-02-26T14:41:21;2.1;;2.2;2.0;;;;;;
84586;SPS30;74809;48.198;16.302;2024-02-26T14:46:21;1.6;;1.7;1.6;;;;;;
84586;SPS30;74809;48.198;16.302;2024-02-26T14:51:22;2.6;;2.6;2.4;;;;;;
84586;SPS30;74809;48.198;16.302;2024-02-26T14:56:22;2.1;;2.1;2.0;;;;;;
84586;SPS30;74809;48.198;16.302;2024-02-26T15:01:22;2.6;;2.6;2.5;;;;;;
84586;SPS30;74809;48.198;16.302;2024-02-26T15:06:21;2.6;;2.7;2.5;;;;;;
84586;SPS30;74809;48.198;16.302;2024-02-26T15:11:22;2.8;;2.9;2.6;;;;;;
84586;SPS30;74809;48.198;16.302;2024-02-26T15:16:26;4.5;;4.6;4.2;;;;;;
84586;SPS30;74809;48.198;16.302;2024-02-26T15:21:26;4.4;;4.5;4.1;;;;;;
84586;SPS30;74809;48.198;16.302;2024-02-26T15:26:26;3.6;;3.7;3.3;;;;;;
84586;SPS30;74809;48.198;16.302;2024-02-26T15:31:26;2.6;;2.7;2.5;;;;;;
84586;SPS30;74809;48.198;16.302;2024-02-26T15:36:22;2.9;;2.9;2.7;;;;;;
84586;SPS30;74809;48.198;16.302;2024-02-26T15:41:22;2.2;;2.2;2.1;;;;;;
84586;SPS30;74809;48.198;16.302;2024-02-26T15:46:21;3.2;;3.2;3.0;;;;;;
84586;SPS30;74809;48.198;16.302;2024-02-26T15:51:22;2.5;;2.5;2.4;;;;;;
84586;SPS30;74809;48.198;16.302;2024-02-26T15:56:21;2.3;;2.3;2.1;;;;;;
84586;SPS30;74809;48.198;16.302;2024-02-26T16:01:21;2.4;;2.4;2.2;;;;;;
84586;SPS30;74809;48.198;16.302;2024-02-26T16:06:24;2.4;;2.5;2.3;;;;;;
84586;SPS30;74809;48.198;16.302;2024-02-26T16:11:21;2.3;;2.3;2.1;;;;;;
84586;SPS30;74809;48.198;16.302;2024-02-26T16:16:22;2.5;;2.6;2.4;;;;;;
84586;SPS30;74809;48.198;16.302;2024-02-26T16:21:21;2.3;;2.3;2.2;;;;;;
84586;SPS30;74809;48.198;16.302;2024-02-26T16:26:22;2.4;;2.4;2.3;;;;;;
84586;SPS30;74809;48.198;16.302;2024-02-26T16:31:22;2.8;;2.8;2.7;;;;;;
84586;SPS30;74809;48.198;16.302;2024-02-26T16:36:24;3.2;;3.3;3.0;;;;;;
84586;SPS30;74809;48.198;16.302;2024-02-26T16:41:21;3.0;;3.0;2.8;;;;;;
84586;SPS30;74809;48.198;16.302;2024-02-26T16:46:22;3.4;;3.5;3.2;;;;;;
84586;SPS30;74809;48.198;16.302;2024-02-26T16:51:24;3.7;;3.8;3.5;;;;;;
84586;SPS30;74809;48.198;16.302;2024-02-26T16:56:22;3.0;;3.1;2.9;;;;;;
84586;SPS30;74809;48.198;16.302;2024-02-26T17:01:22;2.9;;2.9;2.7;;;;;;
84586;SPS30;74809;48.198;16.302;2024-02-26T17:06:22;4.2;;4.3;4.0;;;;;;
84586;SPS30;74809;48.198;16.302;2024-02-26T17:11:22;3.5;;3.5;3.3;;;;;;
84586;SPS30;74809;48.198;16.302;2024-02-26T17:16:21;4.4;;4.4;4.2;;;;;;
84586;SPS30;74809;48.198;16.302;2024-02-26T17:21:23;3.5;;3.6;3.4;;;;;;
84586;SPS30;74809;48.198;16.302;2024-02-26T17:26:23;4.1;;4.2;3.9;;;;;;
84586;SPS30;74809;48.198;16.302;2024-02-26T17:31:22;3.9;;3.9;3.8;;;;;;
84586;SPS30;74809;48.198;16.302;2024-02-26T17:36:22;3.2;;3.3;3.1;;;;;;
84586;SPS30;74809;48.198;16.302;2024-02-26T17:41:22;3.8;;3.8;3.7;;;;;;
84586;SPS30;74809;48.198;16.302;2024-02-26T17:46:21;4.7;;4.8;4.4;;;;;;
84586;SPS30;74809;48.198;16.302;2024-02-26T17:51:22;4.7;;4.8;4.4;;;;;;
84586;SPS30;74809;48.198;16.302;2024-02-26T17:56:22;4.6;;4.8;4.3;;;;;;
84586;SPS30;74809;48.198;16.302;2024-02-26T18:01:21;3.8;;3.9;3.5;;;;;;
84586;SPS30;74809;48.198;16.302;2024-02-26T18:06:22;4.8;;4.9;4.6;;;;;;
84586;SPS30;74809;48.198;16.302;2024-02-26T18:11:22;4.9;;5.0;4.6;;;;;;
84586;SPS30;74809;48.198;16.302;2024-02-26T18:16:22;4.5;;4.7;4.2;;;;;;
84586;SPS30;74809;48.198;16.302;2024-02-26T18:21:22;4.1;;4.2;3.8;;;;;;
84586;SPS30;74809;48.198;16.302;2024-02-26T18:26:22;3.7;;3.7;3.4;;;;;;
84586;SPS30;74809;48.198;16.302;2024-02-26T18:31:22;3.1;;3.1;3.0;;;;;;
84586;SPS30;74809;48.198;16.302;2024-02-26T18:36:27;4.1;;4.1;3.9;;;;;;
84586;SPS30;74809;48.198;16.302;2024-02-26T18:41:22;3.7;;3.8;3.4;;;;;;
84586;SPS30;74809;48.198;16.302;2024-02-26T18:46:22;3.5;;3.6;3.3;;;;;;
84586;SPS30;74809;48.198;16.302;2024-02-26T18:51:22;3.0;;3.1;2.8;;;;;;
84586;SPS30;74809;48.198;16.302;2024-02-26T18:56:22;3.3;;3.4;3.1;;;;;;
84586;SPS30;74809;48.198;16.302;2024-02-26T19:01:22;3.8;;3.9;3.6;;;;;;
84586;SPS30;74809;48.198;16.302;2024-02-26T19:06:22;4.3;;4.4;4.0;;;;;;
84586;SPS30;74809;48.198;16.302;2024-02-26T19:11:22;3.9;;4.0;3.7;;;;;;
84586;SPS30;74809;48.198;16.302;2024-02-26T19:16:22;4.2;;4.3;4.0;;;;;;
84586;SPS30;74809;48.198;16.302;2024-02-26T19:21:22;3.5;;3.5;3.2;;;;;;
84586;SPS30;74809;48.198;16.302;2024-02-26T19:26:22;3.0;;3.1;2.8;;;;;;
84586;SPS30;74809;48.198;16.302;2024-02-26T19:31:22;3.1;;3.2;2.9;;;;;;
84586;SPS30;74809;48.198;16.302;2024-02-26T19:36:22;3.4;;3.5;3.2;;;;;;
84586;SPS30;74809;48.198;16.302;2024-02-26T19:41:22;3.9;;4.0;3.6;;;;;;
84586;SPS30;74809;48.198;16.302;2024-02-26T19:46:22;3.5;;3.6;3.2;;;;;;
84586;SPS30;74809;48.198;16.302;2024-02-26T19:51:24;4.0;;4.0;3.8;;;;;;
84586;SPS30;74809;48.198;16.302;2024-02-26T19:56:22;3.2;;3.3;3.0;;;;;;
84586;SPS30;74809;48.198;16.302;2024-02-26T20:01:22;3.3;;3.4;3.1;;;;;;
84586;SPS30;74809;48.198;16.302;2024-02-26T20:06:22;3.0;;3.0;2.8;;;;;;
84586;SPS30;74809;48.198;16.302;2024-02-26T20:11:22;3.5;;3.6;3.3;;;;;;
84586;SPS30;74809;48.198;16.302;2024-02-26T20:16:22;3.8;;3.9;3.5;;;;;;
84586;SPS30;74809;48.198;16.302;2024-02-26T20:21:22;3.6;;3.6;3.3;;;;;;
84586;SPS30;74809;48.198;16.302;2024-02-26T20:26:22;3.4;;3.5;3.2;;;;;;
84586;SPS30;74809;48.198;16.302;2024-02-26T20:31:23;3.7;;3.7;3.5;;;;;;
84586;SPS30;74809;48.198;16.302;2024-02-26T20:36:23;3.5;;3.5;3.3;;;;;;
84586;SPS30;74809;48.198;16.302;2024-02-26T20:41:23;3.2;;3.2;3.0;;;;;;
84586;SPS30;74809;48.198;16.302;2024-02-26T20:46:22;3.5;;3.6;3.3;;;;;;
84586;SPS30;74809;48.198;16.302;2024-02-26T20:51:22;3.5;;3.5;3.3;;;;;;
84586;SPS30;74809;48.198;16.302;2024-02-26T20:56:22;3.9;;4.0;3.7;;;;;;
84586;SPS30;74809;48.198;16.302;2024-02-26T21:01:22;4.0;;4.1;3.8;;;;;;
84586;SPS30;74809;48.198;16.302;2024-02-26T21:06:22;3.6;;3.7;3.4;;;;;;
84586;SPS30;74809;48.198;16.302;2024-02-26T21:11:22;3.8;;3.9;3.5;;;;;;
84586;SPS30;74809;48.198;16.302;2024-02-26T21:16:22;4.0;;4.1;3.8;;;;;;
84586;SPS30;74809;48.198;16.302;2024-02-26T21:21:22;3.6;;3.7;3.4;;;;;;
84586;SPS30;74809;48.198;16.302;2024-02-26T21:26:22;4.6;;4.8;4.2;;;;;;
84586;SPS30;74809;48.198;16.302;2024-02-26T21:31:22;5.8;;5.9;5.4;;;;;;
84586;SPS30;74809;48.198;16.302;2024-02-26T21:36:22;5.4;;5.5;5.1;;;;;;
84586;SPS30;74809;48.198;16.302;2024-02-26T21:41:22;5.4;;5.6;5.1;;;;;;
84586;SPS30;74809;48.198;16.302;2024-02-26T21:46:22;4.3;;4.4;4.0;;;;;;
84586;SPS30;74809;48.198;16.302;2024-02-26T21:51:22;3.7;;3.8;3.5;;;;;;
84586;SPS30;74809;48.198;16.302;2024-02-26T21:56:22;3.9;;4.0;3.7;;;;;;
84586;SPS30;74809;48.198;16.302;2024-02-26T22:01:22;3.6;;3.7;3.4;;;;;;
84586;SPS30;74809;48.198;16.302;2024-02-26T22:06:22;4.3;;4.5;4.0;;;;;;
84586;SPS30;74809;48.198;16.302;2024-02-26T22:11:22;4.1;;4.2;3.9;;;;;;
84586;SPS30;74809;48.198;16.302;2024-02-26T22:16:22;3.5;;3.5;3.3;;;;;;
84586;SPS30;74809;48.198;16.302;2024-02-26T22:21:22;3.4;;3.5;3.2;;;;;;
84586;SPS30;74809;48.198;16.302;2024-02-26T22:26:22;3.8;;3.9;3.6;;;;;;
84586;SPS30;74809;48.198;16.302;2024-02-26T22:31:22;4.7;;4.8;4.3;;;;;;
84586;SPS30;74809;48.198;16.302;2024-02-26T22:36:22;4.0;;4.0;3.7;;;;;;
84586;SPS30;74809;48.198;16.302;2024-02-26T22:41:22;4.1;;4.2;3.9;;;;;;
84586;SPS30;74809;48.198;16.302;2024-02-26T22:46:22;3.7;;3.7;3.5;;;;;;
84586;SPS30;74809;48.198;16.302;2024-02-26T22:51:22;4.1;;4.2;3.9;;;;;;
84586;SPS30;74809;48.198;16.302;2024-02-26T22:56:22;4.0;;4.0;3.7;;;;;;
84586;SPS30;74809;48.198;16.302;2024-02-26T23:01:22;4.1;;4.2;3.9;;;;;;
84586;SPS30;74809;48.198;16.302;2024-02-26T23:06:22;4.9;;5.0;4.5;;;;;;
84586;SPS30;74809;48.198;16.302;2024-02-26T23:11:22;4.3;;4.4;4.0;;;;;;
84586;SPS30;74809;48.198;16.302;2024-02-26T23:16:22;4.7;;4.8;4.3;;;;;;
84586;SPS30;74809;48.198;16.302;2024-02-26T23:21:22;4.4;;4.6;4.1;;;;;;
84586;SPS30;74809;48.198;16.302;2024-02-26T23:26:22;4.2;;4.2;3.9;;;;;;
84586;SPS30;74809;48.198;16.302;2024-02-26T23:31:22;4.7;;4.8;4.4;;;;;;
84586;SPS30;74809;48.198;16.302;2024-02-26T23:36:22;4.5;;4.6;4.2;;;;;;
84586;SPS30;74809;48.198;16.302;2024-02-26T23:41:22;5.1;;5.2;4.8;;;;;;
